createdAt,value
2023-05-05T00:02:04.242Z,95.33
2023-05-05T00:04:33.611Z,95.47
2023-05-05T00:07:00.581Z,95.63
2023-05-05T00:09:27.030Z,95.70
2023-05-05T00:11:53.588Z,95.96
2023-05-05T00:14:20.076Z,96.06
2023-05-05T00:16:49.769Z,96.12
2023-05-05T00:19:16.283Z,96.28
2023-05-05T00:21:44.984Z,96.23
2023-05-05T00:24:11.583Z,96.11
2023-05-05T00:26:38.139Z,96.03
2023-05-05T00:29:04.718Z,95.83
2023-05-05T00:31:31.260Z,95.64
2023-05-05T00:33:57.848Z,95.61
2023-05-05T00:36:24.302Z,95.76
2023-05-05T00:38:54.102Z,95.98
2023-05-05T00:41:20.617Z,96.14
2023-05-05T00:43:47.392Z,96.48
2023-05-05T00:46:25.318Z,96.39
2023-05-05T00:48:52.092Z,96.68
2023-05-05T00:51:19.504Z,96.44
2023-05-05T00:53:46.303Z,96.57
2023-05-05T00:56:13.035Z,96.59
2023-05-05T00:58:44.251Z,96.39
2023-05-05T01:01:11.413Z,96.54
2023-05-05T01:03:39.167Z,96.36
2023-05-05T01:06:08.435Z,96.21
2023-05-05T01:08:44.829Z,95.89
2023-05-05T01:11:35.950Z,95.31
2023-05-05T01:14:13.309Z,95.07
2023-05-05T01:16:45.093Z,95.20
2023-05-05T01:19:23.456Z,95.31
2023-05-05T01:21:53.606Z,94.88
2023-05-05T01:24:20.191Z,94.64
2023-05-05T01:26:53.928Z,94.92
2023-05-05T01:29:31.226Z,94.94
2023-05-05T01:32:01.022Z,95.14
2023-05-05T01:34:53.818Z,95.01
2023-05-05T01:37:25.798Z,94.99
2023-05-05T01:39:57.614Z,95.39
2023-05-05T01:42:25.442Z,95.67
2023-05-05T01:44:52.498Z,96.20
2023-05-05T01:47:19.586Z,96.55
2023-05-05T01:49:47.160Z,96.79
2023-05-05T01:52:14.597Z,97.31
2023-05-05T01:54:42.331Z,97.43
2023-05-05T01:57:10.160Z,97.51
2023-05-05T01:59:38.066Z,97.75
2023-05-05T02:02:05.191Z,97.24
2023-05-05T02:04:33.219Z,97.11
2023-05-05T02:07:01.276Z,97.20
2023-05-05T02:09:29.145Z,97.27
2023-05-05T02:11:57.367Z,97.42
2023-05-05T02:14:26.652Z,97.24
2023-05-05T02:16:55.368Z,97.46
2023-05-05T02:19:22.348Z,97.76
2023-05-05T02:21:48.943Z,98.10
2023-05-05T02:24:16.174Z,98.27
2023-05-05T02:26:44.382Z,98.27
2023-05-05T02:29:17.929Z,98.44
2023-05-05T02:31:45.979Z,98.34
2023-05-05T02:34:14.676Z,98.49
2023-05-05T02:36:42.508Z,97.87
2023-05-05T02:39:12.796Z,97.94
2023-05-05T02:41:40.201Z,97.88
2023-05-05T02:44:08.418Z,97.99
2023-05-05T02:46:38.933Z,97.79
2023-05-05T02:49:05.411Z,97.47
2023-05-05T02:51:32.687Z,97.42
2023-05-05T02:53:59.622Z,96.84
2023-05-05T02:56:44.413Z,96.82
2023-05-05T02:59:24.263Z,97.03
2023-05-05T03:01:57.529Z,97.60
2023-05-05T03:04:41.157Z,97.72
2023-05-05T03:07:14.313Z,97.95
2023-05-05T03:09:45.737Z,98.36
2023-05-05T03:12:15.355Z,98.04
2023-05-05T03:14:46.139Z,97.81
2023-05-05T03:17:13.607Z,97.88
2023-05-05T03:19:44.296Z,97.74
2023-05-05T03:22:10.836Z,97.92
2023-05-05T03:24:37.361Z,97.92
2023-05-05T03:27:03.892Z,97.92
2023-05-05T03:29:30.419Z,97.78
2023-05-05T03:31:58.089Z,97.91
2023-05-05T03:34:26.516Z,98.09
2023-05-05T03:36:52.972Z,97.93
2023-05-05T03:39:19.532Z,97.80
2023-05-05T03:41:48.351Z,97.58
2023-05-05T03:44:17.991Z,97.63
2023-05-05T03:46:44.518Z,97.27
2023-05-05T03:49:11.207Z,97.11
2023-05-05T03:51:37.718Z,96.87
2023-05-05T03:54:04.262Z,96.87
2023-05-05T03:56:30.826Z,96.79
2023-05-05T03:58:57.338Z,96.83
2023-05-05T04:01:23.925Z,96.69
2023-05-05T04:03:50.518Z,96.80
2023-05-05T04:06:17.135Z,96.87
2023-05-05T04:08:43.640Z,96.92
2023-05-05T04:11:10.206Z,97.03
2023-05-05T04:13:39.631Z,96.65
2023-05-05T04:16:06.200Z,96.83
2023-05-05T04:18:32.768Z,96.90
2023-05-05T04:20:59.316Z,96.93
2023-05-05T04:23:25.833Z,96.84
2023-05-05T04:25:55.358Z,97.02
2023-05-05T04:28:25.929Z,96.75
2023-05-05T04:30:52.483Z,96.38
2023-05-05T04:33:19.129Z,96.15
2023-05-05T04:35:45.650Z,95.90
2023-05-05T04:38:16.152Z,95.87
2023-05-05T04:40:45.811Z,95.65
2023-05-05T04:43:13.395Z,95.62
2023-05-05T04:45:45.049Z,95.61
2023-05-05T04:48:14.623Z,95.23
2023-05-05T04:50:42.742Z,94.42
2023-05-05T04:53:09.406Z,93.71
2023-05-05T04:55:35.926Z,93.11
2023-05-05T04:58:03.640Z,93.08
2023-05-05T05:00:32.639Z,92.90
2023-05-05T05:03:01.512Z,92.59
2023-05-05T05:05:28.177Z,92.43
2023-05-05T05:07:55.144Z,92.13
2023-05-05T05:10:22.088Z,91.94
2023-05-05T05:12:50.482Z,91.91
2023-05-05T05:15:17.052Z,91.59
2023-05-05T05:17:46.509Z,91.35
2023-05-05T05:20:13.085Z,91.14
2023-05-05T05:22:43.893Z,91.45
2023-05-05T05:25:12.030Z,91.03
2023-05-05T05:27:38.841Z,90.97
2023-05-05T05:30:05.761Z,91.42
2023-05-05T05:32:32.534Z,91.08
2023-05-05T05:34:59.044Z,91.01
2023-05-05T05:37:28.708Z,90.87
2023-05-05T05:39:55.175Z,90.94
2023-05-05T05:42:22.035Z,90.43
2023-05-05T05:44:48.624Z,90.31
2023-05-05T05:47:15.317Z,89.83
2023-05-05T05:49:42.937Z,89.53
2023-05-05T05:52:09.488Z,89.55
2023-05-05T05:54:35.998Z,89.68
2023-05-05T05:57:05.699Z,89.59
2023-05-05T05:59:32.236Z,88.79
2023-05-05T06:01:58.893Z,87.86
2023-05-05T06:04:25.516Z,88.04
2023-05-05T06:06:52.244Z,87.00
2023-05-05T06:09:18.736Z,86.96
2023-05-05T06:11:45.266Z,87.14
2023-05-05T06:14:11.740Z,86.75
2023-05-05T06:16:38.576Z,86.27
2023-05-05T06:19:09.644Z,86.15
2023-05-05T06:21:39.234Z,85.87
2023-05-05T06:24:06.092Z,85.08
2023-05-05T06:26:32.671Z,84.85
2023-05-05T06:28:59.110Z,84.29
2023-05-05T06:31:25.820Z,84.30
2023-05-05T06:33:52.336Z,83.52
2023-05-05T06:36:18.886Z,82.91
2023-05-05T06:38:45.450Z,82.40
2023-05-05T06:41:14.716Z,81.79
2023-05-05T06:43:44.326Z,81.15
2023-05-05T06:46:11.422Z,81.39
2023-05-05T06:48:38.021Z,81.65
2023-05-05T06:51:04.609Z,81.17
2023-05-05T06:53:31.085Z,80.75
2023-05-05T06:55:57.582Z,80.46
2023-05-05T06:58:24.084Z,80.20
2023-05-05T07:00:50.625Z,80.59
2023-05-05T07:03:17.313Z,80.85
2023-05-05T07:05:43.909Z,80.50
2023-05-05T07:08:11.409Z,80.33
2023-05-05T07:10:38.285Z,80.99
2023-05-05T07:13:05.003Z,81.19
2023-05-05T07:15:31.556Z,80.87
2023-05-05T07:17:58.368Z,80.33
2023-05-05T07:20:25.256Z,80.27
2023-05-05T07:22:52.044Z,79.54
2023-05-05T07:25:19.707Z,79.01
2023-05-05T07:27:47.125Z,78.66
2023-05-05T07:30:16.566Z,78.16
2023-05-05T07:32:45.201Z,77.29
2023-05-05T07:35:11.853Z,76.97
2023-05-05T07:37:38.342Z,76.21
2023-05-05T07:40:05.181Z,75.70
2023-05-05T07:42:31.823Z,74.65
2023-05-05T07:44:58.520Z,74.19
2023-05-05T07:47:25.213Z,73.96
2023-05-05T07:49:52.109Z,73.09
2023-05-05T07:52:19.430Z,72.38
2023-05-05T07:54:48.639Z,71.27
2023-05-05T07:57:15.961Z,70.61
2023-05-05T07:59:45.772Z,69.68
2023-05-05T08:02:13.705Z,67.69
2023-05-05T08:04:40.792Z,67.39
2023-05-05T08:07:08.307Z,67.30
2023-05-05T08:09:38.653Z,66.38
2023-05-05T08:12:05.928Z,66.02
2023-05-05T08:14:33.000Z,65.60
2023-05-05T08:16:59.795Z,65.56
2023-05-05T08:19:29.213Z,64.65
2023-05-05T08:21:56.441Z,63.09
2023-05-05T08:24:23.033Z,62.65
2023-05-05T08:26:49.649Z,62.61
2023-05-05T08:29:16.184Z,62.33
2023-05-05T08:31:42.928Z,61.51
2023-05-05T08:34:09.577Z,60.96
2023-05-05T08:36:36.276Z,60.81
2023-05-05T08:39:02.978Z,59.87
2023-05-05T08:41:29.657Z,60.36
2023-05-05T08:43:56.334Z,60.17
2023-05-05T08:46:28.258Z,59.84
2023-05-05T08:48:55.982Z,59.34
2023-05-05T08:51:33.007Z,58.73
2023-05-05T08:54:05.831Z,58.22
2023-05-05T08:56:39.945Z,57.22
2023-05-05T08:59:08.636Z,56.84
2023-05-05T09:01:36.303Z,56.66
2023-05-05T09:04:04.631Z,56.16
2023-05-05T09:06:33.785Z,55.53
2023-05-05T09:09:01.215Z,55.45
2023-05-05T09:11:28.334Z,53.88
2023-05-05T09:13:55.713Z,56.07
2023-05-05T09:16:25.013Z,57.29
2023-05-05T09:19:01.254Z,55.74
2023-05-05T09:21:28.085Z,56.29
2023-05-05T09:24:09.057Z,56.08
2023-05-05T09:26:44.152Z,55.73
2023-05-05T09:29:18.560Z,55.71
2023-05-05T09:31:45.204Z,55.72
2023-05-05T09:34:16.026Z,55.54
2023-05-05T09:36:48.348Z,55.41
2023-05-05T09:39:17.707Z,55.08
2023-05-05T09:41:44.941Z,54.97
2023-05-05T09:44:12.801Z,54.22
2023-05-05T09:46:51.196Z,54.62
2023-05-05T09:49:26.887Z,54.78
2023-05-05T09:51:54.887Z,54.74
2023-05-05T09:54:32.826Z,54.35
2023-05-05T09:56:59.422Z,54.24
2023-05-05T09:59:26.053Z,54.65
2023-05-05T10:01:52.702Z,54.70
2023-05-05T10:04:26.544Z,54.61
2023-05-05T10:06:53.203Z,55.21
2023-05-05T10:09:19.985Z,55.01
2023-05-05T10:11:47.654Z,54.52
2023-05-05T10:14:16.199Z,54.07
2023-05-05T10:16:52.097Z,53.07
2023-05-05T10:19:24.226Z,52.93
2023-05-05T10:21:53.315Z,53.54
2023-05-05T10:24:40.023Z,54.38
2023-05-05T10:27:17.401Z,53.52
2023-05-05T10:30:02.322Z,53.77
2023-05-05T10:35:22.969Z,53.75
2023-05-05T10:37:52.989Z,54.20
2023-05-05T10:40:25.252Z,54.05
2023-05-05T10:42:55.675Z,53.38
2023-05-05T10:45:22.825Z,53.91
2023-05-05T10:47:51.263Z,54.25
2023-05-05T10:50:24.049Z,54.93
2023-05-05T10:53:12.688Z,53.41
2023-05-05T10:56:27.463Z,53.05
2023-05-05T10:59:00.259Z,53.11
2023-05-05T11:01:36.468Z,52.32
2023-05-05T11:04:18.353Z,52.05
2023-05-05T11:07:13.462Z,50.66
2023-05-05T11:10:04.686Z,50.84
2023-05-05T11:13:14.243Z,51.47
2023-05-05T11:15:41.671Z,50.75
2023-05-05T11:18:27.622Z,50.49
2023-05-05T11:20:59.985Z,50.62
2023-05-05T11:23:27.544Z,50.75
2023-05-05T11:25:55.547Z,50.70
2023-05-05T11:28:31.179Z,49.86
2023-05-05T11:30:58.825Z,49.04
2023-05-05T11:33:33.587Z,49.52
2023-05-05T11:36:04.177Z,49.40
2023-05-05T11:38:56.667Z,49.24
2023-05-05T11:41:29.370Z,48.84
2023-05-05T11:44:29.454Z,48.11
2023-05-05T11:47:02.023Z,46.81
2023-05-05T11:49:32.614Z,46.93
2023-05-05T11:52:05.357Z,46.95
2023-05-05T11:54:32.647Z,46.61
2023-05-05T11:57:02.308Z,46.94
2023-05-05T11:59:28.914Z,47.51
2023-05-05T12:01:55.709Z,47.07
2023-05-05T12:04:22.585Z,47.24
2023-05-05T12:06:52.178Z,47.88
2023-05-05T12:09:23.388Z,47.80
2023-05-05T12:11:53.611Z,47.61
2023-05-05T12:14:20.810Z,47.80
2023-05-05T12:17:04.369Z,46.89
2023-05-05T12:19:33.478Z,46.81
2023-05-05T12:22:04.676Z,46.68
2023-05-05T12:24:31.558Z,46.29
2023-05-05T12:27:11.255Z,45.33
2023-05-05T12:29:37.912Z,44.96
2023-05-05T12:32:04.834Z,44.10
2023-05-05T12:34:32.280Z,43.64
2023-05-05T12:36:59.115Z,43.38
2023-05-05T12:39:36.320Z,42.83
2023-05-05T12:42:06.696Z,42.91
2023-05-05T12:44:37.748Z,43.15
2023-05-05T12:47:05.054Z,42.78
2023-05-05T12:49:34.552Z,42.59
2023-05-05T12:52:01.146Z,42.83
2023-05-05T12:54:30.731Z,43.50
2023-05-05T12:56:58.606Z,43.20
2023-05-05T12:59:25.205Z,43.90
2023-05-05T13:01:54.597Z,43.68
2023-05-05T13:04:25.063Z,43.62
2023-05-05T13:07:12.380Z,43.85
2023-05-05T13:09:39.246Z,42.07
2023-05-05T13:12:08.376Z,41.60
2023-05-05T13:14:36.389Z,42.61
2023-05-05T13:17:03.084Z,41.74
2023-05-05T13:19:29.989Z,41.79
2023-05-05T13:21:57.640Z,42.01
2023-05-05T13:24:38.127Z,39.93
2023-05-05T13:27:09.396Z,39.49
2023-05-05T13:29:36.382Z,39.79
2023-05-05T13:32:03.160Z,41.86
2023-05-05T13:34:29.901Z,41.64
2023-05-05T13:36:56.627Z,41.65
2023-05-05T13:39:23.300Z,43.57
2023-05-05T13:41:49.910Z,44.56
2023-05-05T13:44:16.637Z,45.23
2023-05-05T13:46:43.460Z,45.17
2023-05-05T13:49:10.327Z,43.96
2023-05-05T13:51:38.364Z,41.99
2023-05-05T13:54:06.034Z,41.88
2023-05-05T13:56:40.128Z,42.00
2023-05-05T13:59:13.700Z,41.69
2023-05-05T14:01:40.558Z,41.04
2023-05-05T14:04:07.354Z,40.65
2023-05-05T14:06:34.027Z,41.69
2023-05-05T14:09:00.766Z,42.66
2023-05-05T14:11:27.491Z,43.85
2023-05-05T14:13:57.784Z,43.38
2023-05-05T14:16:24.461Z,43.80
2023-05-05T14:18:57.466Z,41.73
2023-05-05T14:21:24.284Z,42.22
2023-05-05T14:23:50.947Z,42.53
2023-05-05T14:26:17.958Z,42.46
2023-05-05T14:28:46.703Z,42.90
2023-05-05T14:31:14.660Z,43.11
2023-05-05T14:33:41.267Z,42.83
2023-05-05T14:36:11.484Z,42.22
2023-05-05T14:38:38.190Z,40.72
2023-05-05T14:41:07.022Z,40.54
2023-05-05T14:43:33.822Z,38.70
2023-05-05T14:46:02.448Z,37.71
2023-05-05T14:48:29.262Z,36.50
2023-05-05T14:50:59.348Z,34.71
2023-05-05T14:53:26.788Z,33.95
2023-05-05T14:56:16.854Z,34.35
2023-05-05T14:58:43.713Z,33.64
2023-05-05T15:01:10.494Z,32.27
2023-05-05T15:03:43.474Z,31.04
2023-05-05T15:06:10.170Z,31.21
2023-05-05T15:08:39.021Z,30.88
2023-05-05T15:11:20.301Z,31.29
2023-05-05T15:13:46.907Z,30.26
2023-05-05T15:16:13.530Z,29.99
2023-05-05T15:18:43.106Z,29.79
2023-05-05T15:21:09.836Z,29.69
2023-05-05T15:23:36.455Z,29.27
2023-05-05T15:26:03.174Z,28.76
2023-05-05T15:28:29.864Z,29.04
2023-05-05T15:30:56.508Z,33.96
2023-05-05T15:33:23.169Z,34.84
2023-05-05T15:35:49.768Z,31.17
2023-05-05T15:38:16.347Z,29.85
2023-05-05T15:40:44.562Z,28.58
2023-05-05T15:43:11.295Z,27.86
2023-05-05T15:45:41.184Z,27.31
2023-05-05T15:48:08.476Z,26.91
2023-05-05T15:50:35.153Z,26.23
2023-05-05T15:53:01.825Z,26.43
2023-05-05T15:55:28.574Z,26.13
2023-05-05T15:57:55.306Z,25.13
2023-05-05T16:00:22.545Z,24.98
2023-05-05T16:02:49.596Z,24.85
2023-05-05T16:05:16.347Z,24.31
2023-05-05T16:07:53.419Z,25.47
2023-05-05T16:10:23.368Z,25.99
2023-05-05T16:12:52.847Z,27.39
2023-05-05T16:15:19.826Z,27.59
2023-05-05T16:17:46.485Z,26.79
2023-05-05T16:20:13.207Z,26.87
2023-05-05T16:22:46.075Z,31.74
2023-05-05T16:25:12.714Z,35.69
2023-05-05T16:27:39.434Z,38.63
2023-05-05T16:30:07.229Z,39.77
2023-05-05T16:32:33.818Z,40.08
2023-05-05T16:35:09.310Z,41.26
2023-05-05T16:37:36.157Z,36.87
2023-05-05T16:40:19.737Z,32.71
2023-05-05T16:42:49.626Z,32.58
2023-05-05T16:45:16.326Z,34.33
2023-05-05T16:47:42.986Z,38.84
2023-05-05T16:50:09.958Z,41.94
2023-05-05T16:52:36.606Z,42.75
2023-05-05T16:55:08.312Z,44.93
2023-05-05T16:57:36.323Z,46.07
2023-05-05T17:00:12.673Z,46.07
2023-05-05T17:02:39.471Z,48.46
2023-05-05T17:05:06.701Z,48.59
2023-05-05T17:07:33.443Z,48.96
2023-05-05T17:10:00.309Z,49.67
2023-05-05T17:12:26.903Z,50.43
2023-05-05T17:14:59.928Z,51.03
2023-05-05T17:17:26.771Z,51.36
2023-05-05T17:19:53.485Z,52.62
2023-05-05T17:22:20.181Z,53.11
2023-05-05T17:24:46.764Z,54.38
2023-05-05T17:27:13.649Z,55.13
2023-05-05T17:29:41.356Z,56.54
2023-05-05T17:32:12.282Z,57.35
2023-05-05T17:34:38.922Z,56.97
2023-05-05T17:37:05.630Z,57.54
2023-05-05T17:39:33.046Z,57.52
2023-05-05T17:41:59.646Z,58.33
2023-05-05T17:44:26.300Z,57.91
2023-05-05T17:46:52.963Z,58.44
2023-05-05T17:49:21.460Z,58.72
2023-05-05T17:52:02.951Z,59.89
2023-05-05T17:54:29.663Z,60.47
2023-05-05T17:56:56.441Z,60.90
2023-05-05T17:59:23.200Z,60.51
2023-05-05T18:01:49.847Z,61.00
2023-05-05T18:04:16.559Z,60.44
2023-05-05T18:06:43.290Z,60.41
2023-05-05T18:09:11.266Z,60.48
2023-05-05T18:11:37.997Z,61.76
2023-05-05T18:14:07.907Z,62.24
2023-05-05T18:16:37.706Z,62.63
2023-05-05T18:19:04.471Z,62.68
2023-05-05T18:21:32.156Z,62.78
2023-05-05T18:24:07.665Z,62.58
2023-05-05T18:26:49.078Z,62.23
2023-05-05T18:29:16.857Z,62.20
2023-05-05T18:31:48.681Z,62.41
2023-05-05T18:34:16.824Z,63.02
2023-05-05T18:36:43.655Z,63.30
2023-05-05T18:39:10.318Z,64.11
2023-05-05T18:41:37.080Z,64.50
2023-05-05T18:44:03.929Z,64.95
2023-05-05T18:46:30.770Z,65.16
2023-05-05T18:48:57.371Z,64.72
2023-05-05T18:51:23.901Z,65.27
2023-05-05T18:53:50.613Z,64.93
2023-05-05T18:56:17.262Z,65.36
2023-05-05T18:58:44.290Z,65.83
2023-05-05T19:01:10.976Z,65.98
2023-05-05T19:03:37.670Z,65.65
2023-05-05T19:06:07.639Z,65.61
2023-05-05T19:08:34.353Z,66.08
2023-05-05T19:11:00.985Z,66.79
2023-05-05T19:13:27.554Z,66.80
2023-05-05T19:15:57.097Z,66.57
2023-05-05T19:18:24.244Z,66.36
2023-05-05T19:20:51.040Z,67.24
2023-05-05T19:23:17.711Z,68.21
2023-05-05T19:25:44.640Z,68.47
2023-05-05T19:28:12.026Z,68.36
2023-05-05T19:30:38.804Z,68.13
2023-05-05T19:33:05.771Z,68.32
2023-05-05T19:35:32.489Z,68.77
2023-05-05T19:37:59.710Z,68.70
2023-05-05T19:40:26.299Z,68.86
2023-05-05T19:42:53.059Z,69.21
2023-05-05T19:45:19.735Z,68.94
2023-05-05T19:47:46.342Z,68.83
2023-05-05T19:50:15.431Z,68.82
2023-05-05T19:52:42.239Z,69.53
2023-05-05T19:55:10.536Z,70.58
2023-05-05T19:57:37.416Z,70.61
2023-05-05T20:00:04.909Z,70.07
2023-05-05T20:02:33.300Z,69.94
2023-05-05T20:05:00.989Z,69.63
2023-05-05T20:07:27.695Z,69.75
2023-05-05T20:09:54.334Z,69.76
2023-05-05T20:12:23.020Z,70.00
2023-05-05T20:14:49.676Z,70.64
2023-05-05T20:17:20.097Z,70.64
2023-05-05T20:19:47.821Z,70.62
2023-05-05T20:22:14.392Z,70.80
2023-05-05T20:24:40.945Z,71.24
2023-05-05T20:27:08.093Z,71.68
2023-05-05T20:29:34.691Z,71.50
2023-05-05T20:32:01.351Z,71.80
2023-05-05T20:34:28.214Z,71.94
2023-05-05T20:36:54.903Z,71.88
2023-05-05T20:39:21.520Z,72.29
2023-05-05T20:41:48.621Z,72.20
2023-05-05T20:44:17.805Z,72.06
2023-05-05T20:46:44.486Z,72.25
2023-05-05T20:49:11.137Z,72.04
2023-05-05T20:51:37.761Z,72.46
2023-05-05T20:54:04.776Z,73.14
2023-05-05T20:56:31.371Z,73.25
2023-05-05T20:58:57.975Z,72.69
2023-05-05T21:01:24.627Z,72.70
2023-05-05T21:03:51.301Z,73.25
2023-05-05T21:06:19.542Z,73.22
2023-05-05T21:08:47.208Z,72.91
2023-05-05T21:11:13.922Z,73.06
2023-05-05T21:13:40.612Z,73.22
2023-05-05T21:16:07.346Z,74.84
2023-05-05T21:18:34.000Z,76.42
2023-05-05T21:21:00.649Z,74.94
2023-05-05T21:23:27.388Z,75.27
2023-05-05T21:25:54.209Z,75.40
2023-05-05T21:28:20.948Z,75.55
2023-05-05T21:33:23.656Z,76.98
2023-05-05T21:35:50.463Z,76.72
2023-05-05T21:38:17.037Z,76.80
2023-05-05T21:40:43.636Z,76.58
2023-05-05T21:43:10.246Z,76.60
2023-05-05T21:45:36.856Z,76.53
2023-05-05T21:48:03.695Z,76.28
2023-05-05T21:50:30.380Z,77.91
2023-05-05T21:52:56.955Z,76.68
2023-05-05T21:55:23.703Z,77.41
2023-05-05T21:57:50.288Z,77.60
2023-05-05T22:00:16.996Z,77.55
2023-05-05T22:02:45.302Z,78.43
2023-05-05T22:05:12.385Z,78.33
2023-05-05T22:07:39.484Z,79.02
2023-05-05T22:10:08.323Z,79.94
2023-05-05T22:12:35.254Z,79.83
2023-05-05T22:15:01.909Z,78.63
2023-05-05T22:17:28.644Z,79.14
2023-05-05T22:19:55.371Z,79.30
2023-05-05T22:22:22.115Z,79.29
2023-05-05T22:24:48.788Z,80.02
2023-05-05T22:27:15.763Z,78.53
2023-05-05T22:29:42.613Z,79.24
2023-05-05T22:32:12.273Z,79.69
2023-05-05T22:34:38.890Z,80.06
2023-05-05T22:37:05.544Z,80.07
2023-05-05T22:39:33.289Z,79.78
2023-05-05T22:42:00.144Z,79.39
2023-05-05T22:44:26.747Z,80.07
2023-05-05T22:46:53.408Z,79.17
2023-05-05T22:49:20.306Z,79.63
2023-05-05T22:51:48.024Z,79.51
2023-05-05T22:54:14.668Z,80.26
2023-05-05T22:56:41.241Z,81.09
2023-05-05T22:59:08.118Z,81.65
2023-05-05T23:01:35.489Z,81.92
2023-05-05T23:04:02.368Z,82.67
2023-05-05T23:06:29.612Z,82.68
2023-05-05T23:08:56.185Z,82.70
2023-05-05T23:11:22.762Z,82.65
2023-05-05T23:13:49.381Z,82.12
2023-05-05T23:16:16.231Z,81.41
2023-05-05T23:18:42.981Z,81.67
2023-05-05T23:21:10.190Z,82.14
2023-05-05T23:23:36.797Z,82.17
2023-05-05T23:26:03.454Z,81.61
2023-05-05T23:28:30.134Z,81.97
2023-05-05T23:30:56.826Z,81.41
2023-05-05T23:33:23.514Z,81.69
2023-05-05T23:35:50.092Z,81.34
2023-05-05T23:38:16.792Z,81.74
2023-05-05T23:40:43.404Z,82.45
2023-05-05T23:43:11.962Z,81.74
2023-05-05T23:45:38.748Z,82.25
2023-05-05T23:48:05.671Z,81.27
2023-05-05T23:50:32.373Z,81.30
2023-05-05T23:52:58.965Z,81.55
2023-05-05T23:55:25.626Z,81.99
2023-05-05T23:57:53.156Z,82.43
